ACT        NSW        VIC        QLD        SA        WA        TAS        NT        INFO        CALC            by VK5ZD

  Atmospheric Gas Attenuation - ITU Rec 676-11   --------------- db/100km ---------------
NT Stations Date Time Temp RH % AH g/m3 Dew Point Wind Direction Speed kph Gust kph Barometer mB Rainfall Since 9am 24GHz 47GHz 76GHz 122GHz 134GHz 241GHz
Alice Springs Airport 22 12:50 30.7 59 18.58 21.8 9 11 1005.7 0 39.5 36.4 69.4 183.6 201.4 700.1
Batchelor 22 12:50 30 73 22.14 24.6 2 4 1013.1 15.8 47.0 43.5 86.7 229.5 257.2 894.2
Borroloola 22 12:50 33 61 21.72 24.7 7 9 1005.5 0.2 45.8 40.9 80.9 214.3 239.7 833.8
Bradshaw 22 12:50 33.6 62 22.79 25.3 9 11 1005.9 0.2 48.0 42.6 85.1 225.5 253.6 882.2
Bradshaw-Angallari Valley (Defence) 22 12:50 33.1 57 20.41 23.7 6 9 1013.1 0 43.1 38.8 75.5 199.8 221.7 771.0
Bradshaw-Koolendong Valley 22 12:50 33.5 60 21.94 24.9 4 4 1013.1 0.2 46.2 41.4 81.9 216.8 242.5 843.7
Bulman 22 12:50 34.5 57 21.96 25 7 9 1005.4 0 46.2 40.6 80.4 213.0 238.4 829.6
Cape Wessel 22 12:50 31.5 73 24 26.1 26 28 1006.6 0 50.8 46.0 93.3 247.3 279.7 972.7
Central Arnhem Plateau 22 12:50 29.4 66 19.38 22.4 9 11 1005 0 41.4 38.3 74.0 196.0 216.3 751.9
Centre Island 22 12:50 32 69 23.3 25.6 15 19 1005.7 0 49.3 44.3 89.3 236.7 266.8 927.9
Channel Point 22 09:00 30 85 25.78 27.2 0 1006.3 11 54.8 50.4 104.2 276.1 314.7 1093.7
Charles Point 22 12:50 31.2 67 21.68 24.5 9 11 1013.1 0 45.9 42.0 83.2 220.2 246.1 855.9
Croker Island Airport 22 12:50 28.3 85 23.5 25.5 4 4 1013.1 0.8 50.1 47.1 95.4 252.6 285.1 990.8
Curtin Springs 22 09:00 27 85 21.88 24.3 7 1008.4 0 46.9 44.4 88.6 234.6 262.8 913.2
Daly Waters 22 12:50 35.8 41 16.91 20.8 9 9 1013.1 0 35.6 31.9 58.8 155.6 168.0 584.5
Darwin Airport 22 12:50 31.3 71 23.1 25.6 15 17 1005.9 0 48.9 44.3 89.2 236.4 266.3 925.9
Delamere 22 12:50 33.5 51 18.65 22 19 22 1004 0 39.4 35.3 67.1 177.6 194.9 677.8
Douglas River 22 12:50 33.1 68 24.34 26.6 9 13 1005.6 0.2 51.3 45.7 92.9 246.2 278.9 969.9
Dum In Mirrie 22 12:50 31.9 72 24.18 26.2 7 11 1013.1 0 51.1 46.4 94.2 249.5 282.2 981.4
Elliott 22 09:00 28.6 81 22.77 25 4 1008 3 48.6 45.3 91.0 241.1 271.2 942.7
Gove Airport 22 12:50 30.2 73 22.38 24.8 9 11 1006 3.4 47.6 43.5 87.1 230.7 259.0 900.5
Groote Eylandt Airport 22 12:50 26.7 100 25.31 26.7 7 9 1005.9 34 54.3 51.5 106.4 282.0 321.0 1115.0
Gunn Point 22 12:50 30.2 74 22.69 25.2 4 7 1013.1 0 48.2 44.5 89.1 235.8 265.1 921.5
Jabiru 22 12:50 33.9 56 20.91 23.9 11 11 1005.3 0 44.1 39.0 76.4 202.3 225.2 783.6
Jervois 22 12:50 30.6 59 18.48 21.7 20 26 1007.3 0 39.3 36.3 69.1 182.9 200.5 696.9
Kangaroo Flats (Defence) 22 12:10 33.6 56 20.58 23.6 2 4 1013.1 0 43.4 38.9 75.7 200.5 222.6 774.4
Knuckey Lagoon 22 12:50 30 81 24.57 26.5 6 7 1013.1 2.6 52.2 48.3 98.6 261.0 295.9 1028.7
Lajamanu 22 12:50 31.1 58 18.67 21.9 13 15 1005.3 0.2 39.7 36.4 69.4 183.6 201.5 700.7
Maningrida Airport 22 12:50 25.3 92 21.54 23.9 7 7 1006.4 2.6 46.4 44.5 88.8 235.1 263.0 913.7
Mcarthur River Mine 22 12:50 34.4 48 18.4 22.1 11 15 1005 0 38.8 34.5 65.4 173.0 189.4 659.0
Mccluer Island 22 12:50 30.7 74 23.31 25.5 7 9 1006.5 0.6 49.5 45.1 91.0 241.0 271.8 945.1
Middle Point 22 12:50 32.6 66 23.01 25.4 4 4 1013.1 0 48.5 43.8 87.8 232.4 261.6 909.7
Milingimbi 22 12:50 31 70 22.41 24.9 7 11 1006.4 4.8 47.5 43.2 86.3 228.7 256.8 892.9
Mount Bundey North (Defence) 22 12:50 32.8 60 21.14 24.2 4 6 1013.1 0 44.6 40.3 79.0 209.2 233.1 810.7
Mount Bundey South (Defence) 22 12:50 33 60 21.37 24.2 4 6 1013.1 0 45.1 40.6 79.8 211.4 235.8 820.2
Murganella Airstrip 22 12:50 30.6 71 22.24 24.9 2 2 1013.1 0 47.2 43.4 86.4 228.9 256.7 892.5
Ngayawili (Elcho Island) 22 12:50 29.9 78 23.53 25.6 11 15 1006.4 3.6 50.0 46.0 93.0 246.5 278.3 967.3
Ngukurr Aws 22 12:50 35.2 48 19.18 22.8 11 15 1013.1 0 40.3 35.8 68.3 180.9 198.9 692.1
Noonamah 22 12:50 32.8 60 21.14 24 0 0 1013.1 0 44.6 40.3 79.0 209.2 233.1 810.7
Oenpelli Airport 22 12:50 32 73 24.65 26.7 9 11 1013.1 0.2 52.0 47.3 96.3 255.2 289.3 1006.0
Pirlangimpi 22 12:50 32.1 65 22.07 24.9 4 7 1013.1 0 46.6 42.3 84.0 222.3 249.0 866.1
Point Fawcett 22 12:50 31.4 71 23.22 25.5 13 17 1006.3 0 49.2 44.5 89.7 237.6 267.9 931.4
Point Stuart 22 12:50 33.7 68 25.13 27 9 11 1005.8 0 52.9 46.9 96.0 254.3 288.9 1004.9
Rabbit Flat 22 12:50 35.2 40 15.99 19.6 19 26 1004.8 0 33.8 30.4 55.3 146.4 156.9 545.5
Tennant Creek 22 12:50 23.4 93 19.55 22.2 9 11 1006.1 30.6 42.4 41.6 81.1 214.5 237.3 824.0
Territory Grape Farm 22 12:50 32.3 49 16.81 20.5 6 9 1013.1 0 35.7 33.1 61.1 161.5 174.4 606.4
Tindal 22 12:50 32.9 58 20.55 23.8 4 6 1005.2 0 43.4 38.8 75.8 200.8 223.1 775.8
Victoria River Downs 22 12:50 32 60 20.26 23.3 6 6 1005.5 0.2 42.9 38.7 75.4 199.8 221.6 770.6
Wadeye (Port Keats) 22 12:50 30.6 69 21.62 24.3 9 11 1005.8 0 45.9 41.9 83.1 220.0 246.0 855.3
Walungurru (Kintore) 22 12:50 32.4 48 16.56 20 9 11 1006 0 35.2 32.4 59.6 157.7 170.1 591.2
Warruwi 22 12:50 28 90 24.48 26.2 2 4 1013.1 1.6 52.2 49.3 100.8 266.9 302.6 1051.4
Watarrka 22 09:00 28.1 67 18.32 21.4 1007.7 2 39.2 37.1 70.7 187.1 204.9 712.1
Yulara 22 12:50 32 45 15.2 18.6 9 11 1006.4 0 32.4 30.4 54.6 144.4 153.5 533.4

Last Refresh: 22-Jan-2022 14:08:43

Bureau of Meteorology